createdAt,value
2022-08-12T00:00:34.826Z,3.80
2022-08-12T00:03:20.610Z,4.43
2022-08-12T00:06:07.691Z,4.28
2022-08-12T00:08:53.580Z,3.78
2022-08-12T00:11:39.306Z,4.15
2022-08-12T00:14:24.688Z,3.50
2022-08-12T00:17:10.052Z,4.00
2022-08-12T00:19:55.642Z,4.85
2022-08-12T00:22:41.358Z,4.53
2022-08-12T00:26:19.042Z,4.35
2022-08-12T00:28:32.368Z,5.13
2022-08-12T00:31:17.830Z,4.20
2022-08-12T00:34:02.924Z,4.60
2022-08-12T00:36:50.576Z,4.82
2022-08-12T00:39:36.067Z,4.35
2022-08-12T00:42:11.567Z,3.97
2022-08-12T00:44:39.211Z,4.10
2022-08-12T00:47:06.130Z,4.45
2022-08-12T00:49:35.722Z,4.35
2022-08-12T00:52:07.101Z,4.88
2022-08-12T00:54:34.755Z,4.13
2022-08-12T00:57:04.993Z,4.65
2022-08-12T00:59:32.636Z,4.95
2022-08-12T01:02:10.992Z,5.10
2022-08-12T01:04:58.350Z,6.15
2022-08-12T01:07:45.387Z,6.15
2022-08-12T01:10:32.667Z,5.30
2022-08-12T01:13:18.892Z,5.47
2022-08-12T01:15:47.429Z,4.70
2022-08-12T01:18:14.531Z,5.85
2022-08-12T01:20:50.124Z,6.78
2022-08-12T01:23:25.763Z,6.25
2022-08-12T01:25:56.260Z,6.35
2022-08-12T01:28:24.405Z,5.72
2022-08-12T01:30:51.268Z,6.55
2022-08-12T01:33:21.124Z,6.10
2022-08-12T01:35:57.928Z,6.80
2022-08-12T01:38:35.848Z,6.13
2022-08-12T01:41:03.202Z,6.53
2022-08-12T01:43:30.655Z,6.72
2022-08-12T01:46:04.579Z,5.60
2022-08-12T01:48:50.568Z,5.85
2022-08-12T01:52:19.918Z,5.75
2022-08-12T01:54:14.397Z,6.15
2022-08-12T01:56:59.223Z,5.65
2022-08-12T01:59:49.621Z,5.57
2022-08-12T02:02:27.176Z,6.05
2022-08-12T02:05:27.835Z,5.13
2022-08-12T02:08:37.196Z,5.50
2022-08-12T02:11:18.944Z,5.73
2022-08-12T02:13:55.454Z,4.88
2022-08-12T02:16:40.909Z,4.88
2022-08-12T02:19:22.083Z,4.90
2022-08-12T02:21:49.762Z,4.70
2022-08-12T02:24:19.983Z,4.75
2022-08-12T02:26:50.330Z,3.80
2022-08-12T02:29:18.623Z,4.43
2022-08-12T02:31:45.891Z,4.82
2022-08-12T02:34:13.220Z,4.72
2022-08-12T02:36:40.335Z,4.18
2022-08-12T02:39:13.368Z,4.10
2022-08-12T02:41:42.670Z,4.60
2022-08-12T02:44:09.985Z,4.15
2022-08-12T02:46:37.601Z,3.67
2022-08-12T02:49:14.899Z,4.13
2022-08-12T02:51:44.819Z,4.75
2022-08-12T02:54:11.560Z,4.05
2022-08-12T02:56:41.039Z,4.53
2022-08-12T02:59:10.736Z,4.55
2022-08-12T03:01:47.509Z,4.43
2022-08-12T03:04:21.078Z,4.13
2022-08-12T03:07:11.088Z,4.43
2022-08-12T03:10:03.807Z,4.45
2022-08-12T03:12:34.195Z,4.13
2022-08-12T03:15:02.902Z,3.58
2022-08-12T03:17:33.895Z,4.05
2022-08-12T03:20:10.249Z,4.07
2022-08-12T03:22:40.827Z,3.80
2022-08-12T03:25:12.519Z,3.75
2022-08-12T03:27:47.537Z,3.95
2022-08-12T03:30:14.177Z,4.00
2022-08-12T03:32:42.257Z,4.22
2022-08-12T03:35:40.657Z,3.63
2022-08-12T03:38:16.350Z,3.95
2022-08-12T03:41:09.005Z,3.00
2022-08-12T03:43:57.620Z,3.33
2022-08-12T03:46:46.889Z,3.38
2022-08-12T03:49:32.159Z,4.03
2022-08-12T03:52:17.788Z,3.63
2022-08-12T03:55:03.037Z,3.53
2022-08-12T03:57:48.718Z,3.85
2022-08-12T04:00:25.216Z,4.13
2022-08-12T04:03:01.976Z,3.58
2022-08-12T04:05:54.419Z,3.30
2022-08-12T04:08:17.376Z,3.90
2022-08-12T04:11:02.347Z,2.95
2022-08-12T04:13:29.149Z,2.97
2022-08-12T04:15:56.260Z,3.13
2022-08-12T04:18:23.668Z,3.15
2022-08-12T04:20:50.247Z,3.45
2022-08-12T04:23:17.144Z,2.75
2022-08-12T04:25:44.442Z,2.63
2022-08-12T04:28:13.304Z,3.60
2022-08-12T04:30:40.445Z,2.55
2022-08-12T04:33:09.598Z,3.15
2022-08-12T04:35:36.910Z,2.35
2022-08-12T04:38:03.619Z,2.88
2022-08-12T04:40:31.789Z,3.40
2022-08-12T04:42:58.784Z,2.95
2022-08-12T04:45:25.390Z,3.33
2022-08-12T04:47:52.150Z,2.88
2022-08-12T04:50:34.935Z,3.17
2022-08-12T04:55:30.192Z,2.53
2022-08-12T04:57:56.753Z,2.35
2022-08-12T05:00:23.359Z,2.97
2022-08-12T05:02:49.963Z,2.47
2022-08-12T05:05:23.066Z,3.17
2022-08-12T05:07:54.194Z,2.13
2022-08-12T05:10:34.051Z,2.50
2022-08-12T05:13:04.248Z,2.78
2022-08-12T05:15:30.929Z,2.30
2022-08-12T05:18:00.190Z,3.00
2022-08-12T05:20:29.514Z,2.92
2022-08-12T05:23:26.055Z,2.65
2022-08-12T05:25:56.517Z,2.35
2022-08-12T05:28:24.352Z,2.38
2022-08-12T05:30:50.989Z,3.50
2022-08-12T05:33:17.550Z,3.28
2022-08-12T05:35:44.814Z,2.97
2022-08-12T05:38:34.135Z,2.80
2022-08-12T05:41:01.616Z,3.50
2022-08-12T05:43:28.983Z,2.85
2022-08-12T05:45:55.578Z,2.30
2022-08-12T05:48:22.160Z,2.30
2022-08-12T05:50:48.886Z,2.22
2022-08-12T05:53:15.728Z,1.75
2022-08-12T05:55:42.702Z,2.33
2022-08-12T05:58:09.300Z,1.90
2022-08-12T06:00:36.287Z,1.70
2022-08-12T06:03:03.212Z,1.80
2022-08-12T06:05:43.198Z,2.58
2022-08-12T06:08:20.916Z,1.83
2022-08-12T06:10:47.493Z,1.88
2022-08-12T06:13:25.694Z,2.47
2022-08-12T06:15:55.599Z,1.83
2022-08-12T06:18:24.451Z,1.73
2022-08-12T06:21:01.736Z,2.00
2022-08-12T06:23:29.094Z,1.88
2022-08-12T06:25:56.300Z,1.90
2022-08-12T06:28:23.025Z,1.83
2022-08-12T06:31:08.580Z,1.90
2022-08-12T06:33:56.077Z,1.90
2022-08-12T06:36:29.910Z,1.98
2022-08-12T06:39:00.326Z,1.90
2022-08-12T06:42:27.712Z,2.00
2022-08-12T06:46:59.377Z,2.53
2022-08-12T06:49:25.918Z,2.70
2022-08-12T06:51:56.747Z,1.92
2022-08-12T06:54:31.976Z,1.88
2022-08-12T06:58:06.070Z,2.55
2022-08-12T06:59:51.054Z,2.13
2022-08-12T07:02:19.814Z,2.28
2022-08-12T07:04:47.580Z,2.33
2022-08-12T07:07:14.142Z,2.10
2022-08-12T07:10:03.939Z,2.50
2022-08-12T07:12:29.201Z,2.10
2022-08-12T07:14:58.332Z,2.05
2022-08-12T07:17:25.588Z,2.05
2022-08-12T07:19:53.716Z,2.15
2022-08-12T07:22:23.259Z,2.08
2022-08-12T07:25:09.964Z,2.58
2022-08-12T07:27:41.002Z,1.98
2022-08-12T07:30:08.041Z,1.80
2022-08-12T07:32:34.603Z,1.60
2022-08-12T07:35:02.271Z,1.67
2022-08-12T07:37:29.006Z,1.20
2022-08-12T07:40:00.222Z,1.33
2022-08-12T07:42:28.045Z,1.55
2022-08-12T07:44:55.996Z,0.88
2022-08-12T07:47:23.130Z,0.80
2022-08-12T07:50:04.184Z,0.93
2022-08-12T07:52:32.475Z,1.08
2022-08-12T07:55:00.012Z,0.85
2022-08-12T07:57:29.697Z,0.90
2022-08-12T07:59:56.336Z,0.73
2022-08-12T08:02:27.013Z,0.70
2022-08-12T08:04:56.645Z,0.80
2022-08-12T08:07:24.268Z,0.77
2022-08-12T08:09:58.583Z,0.70
2022-08-12T08:12:45.178Z,0.63
2022-08-12T08:15:11.687Z,0.63
2022-08-12T08:17:38.818Z,0.95
2022-08-12T08:20:06.488Z,0.93
2022-08-12T08:22:41.579Z,0.90
2022-08-12T08:25:35.207Z,0.80
2022-08-12T08:27:55.976Z,0.80
2022-08-12T08:30:23.968Z,0.60
2022-08-12T08:32:50.535Z,0.70
2022-08-12T08:35:17.052Z,0.82
2022-08-12T08:37:47.021Z,0.90
2022-08-12T08:40:33.370Z,0.70
2022-08-12T08:42:59.896Z,0.75
2022-08-12T08:45:27.792Z,0.70
2022-08-12T08:47:57.225Z,0.88
2022-08-12T08:50:27.275Z,0.85
2022-08-12T08:52:53.805Z,0.63
2022-08-12T08:55:27.382Z,0.90
2022-08-12T08:57:56.717Z,1.13
2022-08-12T09:00:23.331Z,0.80
2022-08-12T09:02:58.636Z,0.63
2022-08-12T09:05:26.016Z,1.13
2022-08-12T09:10:40.716Z,0.80
2022-08-12T09:14:10.130Z,0.80
2022-08-12T09:16:23.103Z,0.90
2022-08-12T09:18:52.409Z,0.73
2022-08-12T09:21:19.619Z,0.95
2022-08-12T09:23:57.317Z,0.80
2022-08-12T09:26:29.022Z,0.93
2022-08-12T09:28:56.441Z,0.80
2022-08-12T09:32:06.611Z,1.00
2022-08-12T09:34:28.085Z,0.90
2022-08-12T09:37:01.600Z,0.80
2022-08-12T09:40:01.937Z,0.90
2022-08-12T09:42:45.692Z,0.70
2022-08-12T09:47:57.117Z,0.47
2022-08-12T09:50:26.733Z,1.10
2022-08-12T09:53:15.116Z,0.65
2022-08-12T09:56:01.243Z,0.65
2022-08-12T09:58:57.299Z,0.98
2022-08-12T10:01:23.425Z,0.90
2022-08-12T10:04:03.148Z,0.88
2022-08-12T10:06:35.923Z,1.00
2022-08-12T10:09:08.362Z,0.80
2022-08-12T10:12:09.889Z,0.73
2022-08-12T10:14:37.994Z,0.60
2022-08-12T10:17:08.815Z,0.40
2022-08-12T10:19:37.949Z,1.00
2022-08-12T10:22:16.804Z,0.75
2022-08-12T10:25:17.297Z,0.85
2022-08-12T10:28:08.222Z,0.63
2022-08-12T10:30:44.142Z,0.68
2022-08-12T10:33:31.502Z,0.93
2022-08-12T10:36:00.139Z,0.95
2022-08-12T10:38:38.492Z,1.05
2022-08-12T10:41:56.959Z,1.27
2022-08-12T10:44:17.304Z,1.10
2022-08-12T10:46:49.082Z,1.50
2022-08-12T10:50:03.226Z,2.17
2022-08-12T10:52:34.271Z,1.52
2022-08-12T10:54:51.196Z,1.98
2022-08-12T10:58:27.604Z,1.55
2022-08-12T11:00:30.604Z,1.75
2022-08-12T11:04:26.564Z,2.35
2022-08-12T11:07:03.031Z,1.90
2022-08-12T11:08:34.142Z,1.70
2022-08-12T11:11:13.313Z,1.90
2022-08-12T11:13:46.030Z,2.33
2022-08-12T11:16:21.693Z,1.90
2022-08-12T11:18:54.988Z,2.00
2022-08-12T11:21:22.862Z,2.05
2022-08-12T11:24:30.331Z,1.95
2022-08-12T11:29:25.716Z,1.67
2022-08-12T11:32:02.098Z,1.33
2022-08-12T11:34:53.484Z,1.88
2022-08-12T11:37:26.012Z,2.17
2022-08-12T11:42:37.363Z,1.92
2022-08-12T11:45:13.018Z,2.20
2022-08-12T11:47:43.158Z,2.10
2022-08-12T11:50:11.546Z,2.08
2022-08-12T11:52:56.096Z,1.70
2022-08-12T11:55:23.859Z,1.98
2022-08-12T11:58:38.328Z,2.13
2022-08-12T12:03:44.131Z,2.20
2022-08-12T12:06:16.778Z,2.45
2022-08-12T12:08:47.052Z,2.70
2022-08-12T12:11:17.691Z,2.15
2022-08-12T12:14:08.345Z,3.17
2022-08-12T12:16:33.728Z,3.35
2022-08-12T12:21:47.058Z,2.60
2022-08-12T12:24:21.108Z,3.13
2022-08-12T12:27:00.209Z,3.47
2022-08-12T12:30:19.849Z,3.47
2022-08-12T12:32:14.959Z,3.00
2022-08-12T12:35:17.774Z,3.10
2022-08-12T12:38:04.499Z,2.80
2022-08-12T12:40:15.287Z,2.53
2022-08-12T12:42:55.438Z,2.45
2022-08-12T12:45:27.279Z,2.85
2022-08-12T12:47:56.926Z,2.63
2022-08-12T12:50:35.056Z,3.10
2022-08-12T12:53:03.049Z,3.03
2022-08-12T12:55:35.508Z,2.72
2022-08-12T12:58:04.839Z,2.70
2022-08-12T13:00:32.824Z,2.30
2022-08-12T13:02:59.914Z,2.75
2022-08-12T13:05:42.478Z,2.35
2022-08-12T13:08:28.543Z,2.58
2022-08-12T13:11:04.200Z,2.63
2022-08-12T13:14:09.117Z,2.58
2022-08-12T13:16:21.687Z,2.75
2022-08-12T13:18:52.211Z,2.42
2022-08-12T13:21:33.306Z,2.90
2022-08-12T13:24:10.494Z,2.47
2022-08-12T13:26:37.964Z,2.92
2022-08-12T13:29:04.623Z,2.72
2022-08-12T13:31:35.650Z,3.10
2022-08-12T13:34:33.517Z,2.80
2022-08-12T13:37:00.537Z,2.55
2022-08-12T13:39:27.102Z,2.63
2022-08-12T13:41:54.120Z,3.53
2022-08-12T13:44:20.731Z,3.25
2022-08-12T13:46:59.005Z,3.20
2022-08-12T13:49:54.831Z,2.88
2022-08-12T13:52:13.807Z,2.63
2022-08-12T13:54:40.536Z,2.80
2022-08-12T13:57:11.108Z,2.60
2022-08-12T13:59:47.883Z,2.72
2022-08-12T14:02:16.588Z,3.38
2022-08-12T14:04:45.574Z,3.53
2022-08-12T14:07:23.382Z,3.00
2022-08-12T14:10:11.424Z,3.35
2022-08-12T14:12:54.770Z,3.13
2022-08-12T14:18:08.179Z,3.53
2022-08-12T14:20:34.844Z,4.00
2022-08-12T14:24:01.389Z,3.60
2022-08-12T14:25:48.734Z,3.28
2022-08-12T14:28:19.309Z,3.58
2022-08-12T14:30:59.550Z,3.70
2022-08-12T14:33:44.497Z,3.40
2022-08-12T14:36:12.876Z,3.33
2022-08-12T14:38:44.466Z,3.78
2022-08-12T14:41:17.059Z,3.90
2022-08-12T14:44:04.570Z,3.92
2022-08-12T14:46:30.984Z,3.55
2022-08-12T14:48:57.744Z,3.53
2022-08-12T14:52:44.211Z,4.20
2022-08-12T14:57:05.740Z,4.50
2022-08-12T15:00:04.183Z,3.97
2022-08-12T15:02:30.991Z,4.18
2022-08-12T15:05:03.503Z,3.78
2022-08-12T15:07:33.167Z,4.10
2022-08-12T15:10:32.515Z,3.78
2022-08-12T15:13:07.684Z,4.45
2022-08-12T15:15:37.643Z,4.35
2022-08-12T15:18:15.375Z,4.88
2022-08-12T15:20:48.091Z,4.10
2022-08-12T15:23:21.353Z,3.80
2022-08-12T15:25:48.806Z,4.28
2022-08-12T15:28:22.358Z,5.03
2022-08-12T15:30:52.298Z,4.35
2022-08-12T15:33:24.049Z,4.25
2022-08-12T15:35:53.961Z,4.10
2022-08-12T15:38:24.586Z,4.43
2022-08-12T15:40:54.684Z,4.43
2022-08-12T15:43:35.571Z,3.97
2022-08-12T15:46:15.094Z,4.00
2022-08-12T15:51:09.958Z,4.35
2022-08-12T15:53:55.215Z,4.15
2022-08-12T15:56:29.522Z,4.95
2022-08-12T16:01:35.191Z,5.05
2022-08-12T16:04:02.648Z,5.20
2022-08-12T16:07:03.649Z,6.30
2022-08-12T16:09:56.769Z,5.30
2022-08-12T16:12:12.044Z,3.75
2022-08-12T16:14:39.174Z,4.50
2022-08-12T16:17:09.071Z,4.78
2022-08-12T16:20:03.859Z,4.68
2022-08-12T16:22:29.044Z,3.65
2022-08-12T16:24:57.242Z,4.30
2022-08-12T16:27:25.687Z,4.35
2022-08-12T16:29:57.556Z,4.90
2022-08-12T16:32:31.477Z,4.57
2022-08-12T16:34:59.903Z,4.80
2022-08-12T16:37:33.028Z,4.20
2022-08-12T16:40:14.556Z,4.30
2022-08-12T16:42:42.249Z,4.40
2022-08-12T16:45:23.447Z,4.38
2022-08-12T16:48:00.685Z,4.47
2022-08-12T16:50:31.041Z,4.47
2022-08-12T16:52:59.888Z,4.97
2022-08-12T16:55:42.344Z,5.05
2022-08-12T16:58:18.516Z,5.43
2022-08-12T17:00:57.325Z,4.70
2022-08-12T17:03:29.009Z,4.50
2022-08-12T17:05:57.019Z,4.40
2022-08-12T17:08:29.111Z,5.00
2022-08-12T17:10:56.183Z,5.15
2022-08-12T17:13:24.160Z,5.30
2022-08-12T17:16:05.642Z,5.65
2022-08-12T17:18:43.240Z,6.35
2022-08-12T17:21:40.118Z,5.30
2022-08-12T17:24:10.568Z,5.68
2022-08-12T17:26:44.999Z,5.47
2022-08-12T17:29:19.593Z,6.55
2022-08-12T17:32:02.930Z,6.38
2022-08-12T17:34:50.479Z,5.88
2022-08-12T17:37:17.297Z,5.32
2022-08-12T17:40:12.314Z,6.15
2022-08-12T17:42:32.675Z,6.38
2022-08-12T17:45:17.235Z,5.53
2022-08-12T17:47:45.422Z,6.20
2022-08-12T17:50:28.714Z,6.20
2022-08-12T17:53:00.464Z,6.25
2022-08-12T17:55:40.477Z,6.63
2022-08-12T17:58:12.943Z,7.30
2022-08-12T18:00:42.593Z,7.00
2022-08-12T18:03:09.616Z,7.50
2022-08-12T18:05:55.666Z,6.97
2022-08-12T18:08:33.557Z,5.70
2022-08-12T18:11:38.348Z,5.35
2022-08-12T18:14:06.211Z,5.53
2022-08-12T18:16:34.729Z,5.93
2022-08-12T18:19:02.424Z,6.68
2022-08-12T18:22:01.211Z,6.20
2022-08-12T18:24:21.913Z,6.40
2022-08-12T18:26:52.048Z,5.43
2022-08-12T18:29:19.215Z,6.00
2022-08-12T18:31:58.895Z,5.63
2022-08-12T18:34:29.314Z,6.75
2022-08-12T18:36:57.287Z,6.53
2022-08-12T18:39:23.837Z,6.60
2022-08-12T18:41:51.621Z,6.72
2022-08-12T18:44:19.269Z,6.55
2022-08-12T18:46:58.069Z,6.13
2022-08-12T18:49:34.630Z,6.53
2022-08-12T18:52:05.460Z,7.22
2022-08-12T18:54:37.582Z,7.90
2022-08-12T18:57:19.831Z,7.10
2022-08-12T19:00:07.079Z,7.00
2022-08-12T19:02:40.355Z,8.18
2022-08-12T19:05:10.182Z,9.07
2022-08-12T19:07:49.324Z,8.27
2022-08-12T19:10:17.847Z,8.85
2022-08-12T19:13:08.363Z,7.82
2022-08-12T19:15:42.335Z,9.27
2022-08-12T19:18:10.349Z,9.00
2022-08-12T19:20:39.395Z,7.95
2022-08-12T19:23:08.153Z,9.30
2022-08-12T19:26:00.864Z,7.70
2022-08-12T19:28:35.741Z,7.95
2022-08-12T19:31:55.872Z,11.70
2022-08-12T19:37:14.571Z,8.52
2022-08-12T19:40:09.496Z,9.07
2022-08-12T19:42:28.944Z,9.13
2022-08-12T19:45:01.388Z,8.90
2022-08-12T19:47:39.136Z,8.90
2022-08-12T19:50:06.403Z,9.40
2022-08-12T19:52:33.838Z,9.18
2022-08-12T19:55:04.811Z,8.88
2022-08-12T19:57:33.839Z,10.47
2022-08-12T20:00:14.012Z,9.07
2022-08-12T20:02:48.336Z,8.05
2022-08-12T20:06:03.513Z,7.97
2022-08-12T20:08:04.077Z,8.52
2022-08-12T20:10:35.476Z,8.10
2022-08-12T20:13:18.351Z,9.82
2022-08-12T20:15:59.660Z,10.55
2022-08-12T20:18:53.441Z,10.45
2022-08-12T20:21:16.099Z,9.93
2022-08-12T20:23:59.790Z,8.93
2022-08-12T20:26:27.829Z,8.82
2022-08-12T20:28:54.928Z,7.72
2022-08-12T20:31:21.487Z,7.70
2022-08-12T20:33:56.492Z,8.30
2022-08-12T20:36:42.672Z,7.68
2022-08-12T20:39:37.143Z,8.48
2022-08-12T20:42:00.007Z,8.55
2022-08-12T20:44:26.903Z,9.30
2022-08-12T20:46:58.181Z,8.45
2022-08-12T20:49:24.939Z,8.50
2022-08-12T20:51:56.248Z,8.65
2022-08-12T20:54:23.073Z,8.32
2022-08-12T20:57:01.044Z,8.02
2022-08-12T21:02:15.679Z,7.45
2022-08-12T21:05:00.795Z,7.07
2022-08-12T21:07:27.690Z,6.63
2022-08-12T21:10:01.404Z,7.38
2022-08-12T21:12:34.547Z,8.50
2022-08-12T21:15:23.614Z,7.53
2022-08-12T21:18:11.031Z,6.88
2022-08-12T21:20:55.501Z,6.28
2022-08-12T21:23:23.270Z,7.68
2022-08-12T21:25:50.963Z,8.43
2022-08-12T21:28:21.156Z,8.90
2022-08-12T21:31:11.526Z,7.82
2022-08-12T21:33:58.881Z,8.38
2022-08-12T21:36:22.959Z,7.38
2022-08-12T21:39:19.077Z,7.63
2022-08-12T21:41:52.656Z,8.52
2022-08-12T21:45:43.902Z,8.25
2022-08-12T21:47:21.024Z,8.57
2022-08-12T21:50:06.502Z,8.73
2022-08-12T21:52:36.113Z,8.25
2022-08-12T21:55:08.011Z,8.43
2022-08-12T21:57:48.045Z,9.13
2022-08-12T22:00:21.375Z,8.90
2022-08-12T22:03:07.890Z,8.48
2022-08-12T22:05:53.654Z,8.80
2022-08-12T22:08:22.078Z,8.70
2022-08-12T22:10:52.498Z,9.57
2022-08-12T22:14:04.239Z,9.00
2022-08-12T22:16:10.734Z,9.60
2022-08-12T22:18:39.243Z,9.95
2022-08-12T22:21:06.159Z,9.93
2022-08-12T22:23:51.582Z,10.13
2022-08-12T22:26:37.306Z,8.52
2022-08-12T22:29:23.644Z,9.52
2022-08-12T22:31:50.440Z,11.10
2022-08-12T22:34:18.349Z,11.35
2022-08-12T22:36:45.765Z,9.32
2022-08-12T22:39:15.731Z,9.23
2022-08-12T22:42:01.347Z,9.10
2022-08-12T22:44:52.766Z,9.57
2022-08-12T22:47:45.779Z,9.25
2022-08-12T22:50:26.988Z,9.52
2022-08-12T22:53:17.107Z,9.35
2022-08-12T22:55:58.939Z,9.38
2022-08-12T22:58:33.563Z,10.25
2022-08-12T23:01:02.292Z,8.73
2022-08-12T23:03:48.557Z,8.90
2022-08-12T23:06:16.923Z,9.07
2022-08-12T23:08:43.605Z,8.73
2022-08-12T23:11:10.275Z,8.82
2022-08-12T23:13:45.865Z,10.48
2022-08-12T23:16:27.763Z,10.73
2022-08-12T23:18:59.066Z,9.90
2022-08-12T23:21:26.442Z,10.27
2022-08-12T23:24:14.400Z,8.40
2022-08-12T23:27:02.434Z,9.95
2022-08-12T23:29:29.980Z,10.18
2022-08-12T23:32:10.966Z,10.88
2022-08-12T23:34:37.780Z,12.00
2022-08-12T23:37:05.035Z,11.30
2022-08-12T23:40:14.371Z,10.82
2022-08-12T23:42:20.206Z,10.93
2022-08-12T23:44:48.421Z,10.77
2022-08-12T23:47:16.111Z,11.95
2022-08-12T23:49:56.207Z,11.10
2022-08-12T23:52:30.582Z,10.63
2022-08-12T23:55:23.374Z,11.50
2022-08-12T23:58:17.854Z,11.73
